createdAt,value
2018-03-16T00:01:25.518Z,48.83
2018-03-16T00:03:53.150Z,50.03
2018-03-16T00:06:20.662Z,46.87
2018-03-16T00:08:48.174Z,46.53
2018-03-16T00:11:15.705Z,47.03
2018-03-16T00:13:44.001Z,47.80
2018-03-16T00:16:12.284Z,48.10
2018-03-16T00:18:40.575Z,46.47
2018-03-16T00:21:08.077Z,48.07
2018-03-16T00:23:35.607Z,47.37
2018-03-16T00:26:03.135Z,48.87
2018-03-16T00:28:30.640Z,47.87
2018-03-16T00:30:58.143Z,49.30
2018-03-16T00:33:25.777Z,48.47
2018-03-16T00:35:53.298Z,48.63
2018-03-16T00:38:21.570Z,49.10
2018-03-16T00:40:49.085Z,44.63
2018-03-16T00:43:16.589Z,45.73
2018-03-16T00:45:44.128Z,46.80
2018-03-16T00:48:11.630Z,47.43
2018-03-16T00:50:39.902Z,45.07
2018-03-16T00:53:07.446Z,48.93
2018-03-16T00:55:34.952Z,47.90
2018-03-16T00:58:02.474Z,46.27
2018-03-16T01:00:29.972Z,47.17
2018-03-16T01:02:58.268Z,47.43
2018-03-16T01:05:25.798Z,47.57
2018-03-16T01:07:53.317Z,48.20
2018-03-16T01:10:20.881Z,47.47
2018-03-16T01:12:48.430Z,47.43
2018-03-16T01:15:15.935Z,49.17
2018-03-16T01:17:43.455Z,48.03
2018-03-16T01:20:10.959Z,49.07
2018-03-16T01:22:38.461Z,46.20
2018-03-16T01:25:06.101Z,46.33
2018-03-16T01:27:33.605Z,44.60
2018-03-16T01:30:01.121Z,46.53
2018-03-16T01:32:28.630Z,45.43
2018-03-16T01:34:56.160Z,46.20
2018-03-16T01:37:24.568Z,43.90
2018-03-16T01:39:52.083Z,43.40
2018-03-16T01:42:19.599Z,42.47
2018-03-16T01:44:47.227Z,44.07
2018-03-16T01:47:14.739Z,44.43
2018-03-16T01:49:42.255Z,43.87
2018-03-16T01:52:09.893Z,46.73
2018-03-16T01:54:37.400Z,45.13
2018-03-16T01:57:05.672Z,45.97
2018-03-16T01:59:34.071Z,47.33
2018-03-16T02:02:01.585Z,48.37
2018-03-16T02:04:29.853Z,46.83
2018-03-16T02:06:57.381Z,48.63
2018-03-16T02:09:24.895Z,46.97
2018-03-16T02:11:52.402Z,48.00
2018-03-16T02:14:19.938Z,47.63
2018-03-16T02:16:47.440Z,47.40
2018-03-16T02:19:14.961Z,49.63
2018-03-16T02:21:42.461Z,47.60
2018-03-16T02:24:09.992Z,49.43
2018-03-16T02:26:37.532Z,45.73
2018-03-16T02:29:05.807Z,48.97
2018-03-16T02:31:33.324Z,48.20
2018-03-16T02:34:00.996Z,48.07
2018-03-16T02:36:28.511Z,46.50
2018-03-16T02:38:56.021Z,44.13
2018-03-16T02:41:23.667Z,45.17
2018-03-16T02:43:51.949Z,43.13
2018-03-16T02:46:20.249Z,43.23
2018-03-16T02:48:47.756Z,42.07
2018-03-16T02:51:15.279Z,42.17
2018-03-16T02:53:42.914Z,42.33
2018-03-16T02:56:10.406Z,43.63
2018-03-16T02:58:37.905Z,43.40
2018-03-16T03:01:05.532Z,42.47
2018-03-16T03:03:33.038Z,43.27
2018-03-16T03:06:00.560Z,43.67
2018-03-16T03:08:28.088Z,44.23
2018-03-16T03:10:55.597Z,42.07
2018-03-16T03:13:23.101Z,41.80
2018-03-16T03:15:50.632Z,42.30
2018-03-16T03:18:18.133Z,42.20
2018-03-16T03:20:45.644Z,43.13
2018-03-16T03:23:13.173Z,41.90
2018-03-16T03:25:41.445Z,41.20
2018-03-16T03:28:08.950Z,41.83
2018-03-16T03:30:36.460Z,41.40
2018-03-16T03:33:03.968Z,39.97
2018-03-16T03:35:31.498Z,40.07
2018-03-16T03:37:59.010Z,39.03
2018-03-16T03:40:26.528Z,40.63
2018-03-16T03:42:54.029Z,40.57
2018-03-16T03:45:21.542Z,41.10
2018-03-16T03:47:49.069Z,41.60
2018-03-16T03:50:16.573Z,42.40
2018-03-16T03:52:44.082Z,39.77
2018-03-16T03:55:11.731Z,39.33
2018-03-16T03:57:40.006Z,39.43
2018-03-16T04:00:08.281Z,39.87
2018-03-16T04:02:36.671Z,38.07
2018-03-16T04:05:04.949Z,41.20
2018-03-16T04:07:33.220Z,39.67
2018-03-16T04:10:01.508Z,37.53
2018-03-16T04:12:29.764Z,39.23
2018-03-16T04:14:57.275Z,39.87
2018-03-16T04:17:24.770Z,39.97
2018-03-16T04:19:52.281Z,38.73
2018-03-16T04:22:20.576Z,35.83
2018-03-16T04:24:48.082Z,38.40
2018-03-16T04:27:15.579Z,37.47
2018-03-16T04:29:43.847Z,36.63
2018-03-16T04:32:11.344Z,38.70
2018-03-16T04:34:38.874Z,36.73
2018-03-16T04:37:06.380Z,38.90
2018-03-16T04:39:33.882Z,38.93
2018-03-16T04:42:01.389Z,37.17
2018-03-16T04:44:28.911Z,36.07
2018-03-16T04:46:56.532Z,37.13
2018-03-16T04:49:24.037Z,38.37
2018-03-16T04:51:51.541Z,39.03
2018-03-16T04:54:19.063Z,40.57
2018-03-16T04:56:46.564Z,38.83
2018-03-16T04:59:14.079Z,36.83
2018-03-16T05:01:41.601Z,40.93
2018-03-16T05:04:09.114Z,41.70
2018-03-16T05:06:36.627Z,38.50
2018-03-16T05:09:04.257Z,41.17
2018-03-16T05:11:31.756Z,39.43
2018-03-16T05:13:59.256Z,38.73
2018-03-16T05:16:26.781Z,37.50
2018-03-16T05:18:54.289Z,37.73
2018-03-16T05:21:21.794Z,37.43
2018-03-16T05:23:49.319Z,39.37
2018-03-16T05:26:16.819Z,40.17
2018-03-16T05:28:45.099Z,37.83
2018-03-16T05:31:12.642Z,39.27
2018-03-16T05:33:40.135Z,37.47
2018-03-16T05:36:07.643Z,37.17
2018-03-16T05:38:35.172Z,36.17
2018-03-16T05:41:02.679Z,37.90
2018-03-16T05:43:30.186Z,38.40
2018-03-16T05:45:57.819Z,40.60
2018-03-16T05:48:27.109Z,41.70
2018-03-16T05:50:54.652Z,38.90
2018-03-16T05:53:22.157Z,41.77
2018-03-16T05:55:50.434Z,42.30
2018-03-16T05:58:18.834Z,42.40
2018-03-16T06:00:47.124Z,41.70
2018-03-16T06:03:14.669Z,42.27
2018-03-16T06:05:42.976Z,42.10
2018-03-16T06:08:10.498Z,40.57
2018-03-16T06:10:38.787Z,41.10
2018-03-16T06:13:07.203Z,40.57
2018-03-16T06:15:34.718Z,39.93
2018-03-16T06:18:02.258Z,40.80
2018-03-16T06:20:29.796Z,41.00
2018-03-16T06:22:57.331Z,43.40
2018-03-16T06:25:25.605Z,41.03
2018-03-16T06:27:53.901Z,38.23
2018-03-16T06:30:22.221Z,40.03
2018-03-16T06:32:49.734Z,41.73
2018-03-16T06:35:18.007Z,35.73
2018-03-16T06:37:45.512Z,39.83
2018-03-16T06:40:14.955Z,37.17
2018-03-16T06:42:42.470Z,41.23
2018-03-16T06:45:09.989Z,37.00
2018-03-16T06:47:37.569Z,35.37
2018-03-16T06:50:05.975Z,37.17
2018-03-16T06:52:33.482Z,33.87
2018-03-16T06:55:01.126Z,34.83
2018-03-16T06:57:28.636Z,35.07
2018-03-16T06:59:56.146Z,34.53
2018-03-16T07:02:23.670Z,35.50
2018-03-16T07:04:51.201Z,36.83
2018-03-16T07:07:18.730Z,38.30
2018-03-16T07:09:46.291Z,40.97
2018-03-16T07:12:13.820Z,39.20
2018-03-16T07:14:41.368Z,36.33
2018-03-16T07:17:08.958Z,37.73
2018-03-16T07:19:37.251Z,39.13
2018-03-16T07:22:04.836Z,37.30
2018-03-16T07:24:32.412Z,36.20
2018-03-16T07:26:59.937Z,36.70
2018-03-16T07:29:28.217Z,36.83
2018-03-16T07:31:56.532Z,33.63
2018-03-16T07:34:24.070Z,36.90
2018-03-16T07:36:51.603Z,39.07
2018-03-16T07:39:19.125Z,37.00
2018-03-16T07:41:46.653Z,38.17
2018-03-16T07:44:14.967Z,38.23
2018-03-16T07:46:42.497Z,39.50
2018-03-16T07:49:10.032Z,40.80
2018-03-16T07:51:37.728Z,39.00
2018-03-16T07:54:05.211Z,41.47
2018-03-16T07:56:32.727Z,39.60
2018-03-16T07:59:00.257Z,38.40
2018-03-16T08:01:27.800Z,34.97
2018-03-16T08:03:55.322Z,37.13
2018-03-16T08:06:22.883Z,47.10
2018-03-16T08:08:50.408Z,52.80
2018-03-16T08:11:17.959Z,44.83
2018-03-16T08:13:45.495Z,34.73
2018-03-16T08:16:13.777Z,40.73
2018-03-16T08:18:42.191Z,38.13
2018-03-16T08:21:09.710Z,38.43
2018-03-16T08:23:38.016Z,36.30
2018-03-16T08:26:05.570Z,32.80
2018-03-16T08:28:33.841Z,30.17
2018-03-16T08:31:02.138Z,31.33
2018-03-16T08:33:29.664Z,31.23
2018-03-16T08:35:57.222Z,31.20
2018-03-16T08:38:24.753Z,30.20
2018-03-16T08:40:52.306Z,32.17
2018-03-16T08:43:19.837Z,33.23
2018-03-16T08:45:48.122Z,33.83
2018-03-16T08:48:16.441Z,33.97
2018-03-16T08:50:44.852Z,37.23
2018-03-16T08:53:12.365Z,36.73
2018-03-16T08:55:39.930Z,35.57
2018-03-16T08:58:07.497Z,34.93
2018-03-16T09:00:35.013Z,37.23
2018-03-16T09:03:02.551Z,38.67
2018-03-16T09:05:30.224Z,38.67
2018-03-16T09:07:57.805Z,41.50
2018-03-16T09:10:25.413Z,42.20
2018-03-16T09:12:52.996Z,39.33
2018-03-16T09:15:20.567Z,40.60
2018-03-16T09:17:48.259Z,40.13
2018-03-16T09:20:15.830Z,39.17
2018-03-16T09:22:43.409Z,40.23
2018-03-16T09:25:10.985Z,40.47
2018-03-16T09:27:39.323Z,40.07
2018-03-16T09:30:06.898Z,42.93
2018-03-16T09:32:34.620Z,41.60
2018-03-16T09:35:02.285Z,43.67
2018-03-16T09:37:29.840Z,45.47
2018-03-16T09:39:57.376Z,42.73
2018-03-16T09:42:24.904Z,47.23
2018-03-16T09:44:53.246Z,47.27
2018-03-16T09:47:21.538Z,49.37
2018-03-16T09:49:49.076Z,54.83
2018-03-16T09:52:17.362Z,49.97
2018-03-16T09:54:57.561Z,56.97
2018-03-16T09:57:25.130Z,50.00
2018-03-16T09:59:52.661Z,50.60
2018-03-16T10:02:20.183Z,58.47
2018-03-16T10:04:47.747Z,51.83
2018-03-16T10:07:15.281Z,47.37
2018-03-16T10:09:42.829Z,55.73
2018-03-16T10:12:10.364Z,51.50
2018-03-16T10:14:38.654Z,49.10
2018-03-16T10:17:06.208Z,48.90
2018-03-16T10:19:34.494Z,47.57
2018-03-16T10:22:02.806Z,47.57
2018-03-16T10:24:30.335Z,50.10
2018-03-16T10:26:58.648Z,46.30
2018-03-16T10:29:26.198Z,45.30
2018-03-16T10:31:53.715Z,47.47
2018-03-16T10:34:21.243Z,48.30
2018-03-16T10:36:48.897Z,46.27
2018-03-16T10:39:16.642Z,48.33
2018-03-16T10:41:44.939Z,43.77
2018-03-16T10:44:12.467Z,44.77
2018-03-16T10:46:39.994Z,47.87
2018-03-16T10:49:07.627Z,43.70
2018-03-16T10:51:35.156Z,44.67
2018-03-16T10:54:02.689Z,45.50
2018-03-16T10:56:30.584Z,47.40
2018-03-16T10:58:58.118Z,47.07
2018-03-16T11:01:25.644Z,46.60
2018-03-16T11:03:53.293Z,49.93
2018-03-16T11:06:26.409Z,45.23
2018-03-16T11:08:53.962Z,44.50
2018-03-16T11:11:22.254Z,42.40
2018-03-16T11:13:49.791Z,42.50
2018-03-16T11:16:18.130Z,45.13
2018-03-16T11:18:45.648Z,42.93
2018-03-16T11:21:13.951Z,42.20
2018-03-16T11:23:41.485Z,42.33
2018-03-16T11:26:09.802Z,43.73
2018-03-16T11:28:37.343Z,38.87
2018-03-16T11:31:05.633Z,39.20
2018-03-16T11:33:33.164Z,36.77
2018-03-16T11:36:01.601Z,36.77
2018-03-16T11:38:29.117Z,33.07
2018-03-16T11:40:56.664Z,33.33
2018-03-16T11:43:24.211Z,33.03
2018-03-16T11:45:51.743Z,32.97
2018-03-16T11:48:19.257Z,32.63
2018-03-16T11:50:46.911Z,29.17
2018-03-16T11:53:14.448Z,30.37
2018-03-16T11:55:41.976Z,30.17
2018-03-16T11:58:10.295Z,32.70
2018-03-16T12:00:38.579Z,32.33
2018-03-16T12:03:06.173Z,31.33
2018-03-16T12:05:33.736Z,30.80
2018-03-16T12:08:01.300Z,31.00
2018-03-16T12:10:28.888Z,31.73
2018-03-16T12:12:57.190Z,30.27
2018-03-16T12:15:24.710Z,32.13
2018-03-16T12:17:52.241Z,32.27
2018-03-16T12:20:19.812Z,29.63
2018-03-16T12:22:47.326Z,30.37
2018-03-16T12:25:15.760Z,31.80
2018-03-16T12:27:43.314Z,31.53
2018-03-16T12:30:10.881Z,31.03
2018-03-16T12:32:38.412Z,29.27
2018-03-16T12:35:05.964Z,31.70
2018-03-16T12:37:34.291Z,31.47
2018-03-16T12:40:01.826Z,31.73
2018-03-16T12:44:57.017Z,29.20
2018-03-16T12:47:24.560Z,31.83
2018-03-16T12:49:52.138Z,33.83
2018-03-16T12:52:19.744Z,29.27
2018-03-16T12:54:47.312Z,31.47
2018-03-16T12:57:14.857Z,28.93
2018-03-16T12:59:43.200Z,30.33
2018-03-16T13:02:10.792Z,32.03
2018-03-16T13:04:38.377Z,32.93
2018-03-16T13:07:06.886Z,33.37
2018-03-16T13:09:34.504Z,34.50
2018-03-16T13:12:02.940Z,34.10
2018-03-16T13:14:30.498Z,36.77
2018-03-16T13:16:58.041Z,33.17
2018-03-16T13:19:25.629Z,34.73
2018-03-16T13:21:53.149Z,35.17
2018-03-16T13:24:20.689Z,33.37
2018-03-16T13:26:48.317Z,32.93
2018-03-16T13:29:16.128Z,32.87
2018-03-16T13:31:43.762Z,30.97
2018-03-16T13:34:12.085Z,28.80
2018-03-16T13:36:39.621Z,23.50
2018-03-16T13:39:07.186Z,22.53
2018-03-16T13:41:34.985Z,22.87
2018-03-16T13:44:03.424Z,21.63
2018-03-16T13:46:31.011Z,22.07
2018-03-16T13:48:58.724Z,22.90
2018-03-16T13:51:27.034Z,23.93
2018-03-16T13:53:54.759Z,23.20
2018-03-16T13:56:23.146Z,33.73
2018-03-16T13:58:51.440Z,27.23
2018-03-16T14:01:19.770Z,26.83
2018-03-16T14:03:47.640Z,24.27
2018-03-16T14:06:16.294Z,26.27
2018-03-16T14:08:44.299Z,24.77
2018-03-16T14:11:12.209Z,21.87
2018-03-16T14:13:40.098Z,21.60
2018-03-16T14:16:07.996Z,23.53
2018-03-16T14:18:36.001Z,25.00
2018-03-16T14:21:04.701Z,23.93
2018-03-16T14:23:33.065Z,25.57
2018-03-16T14:26:00.654Z,23.47
2018-03-16T14:28:28.200Z,21.17
2018-03-16T14:30:55.790Z,23.43
2018-03-16T14:33:23.373Z,24.13
2018-03-16T14:35:51.732Z,24.00
2018-03-16T14:38:19.298Z,23.03
2018-03-16T14:40:46.909Z,25.23
2018-03-16T14:43:14.471Z,25.80
2018-03-16T14:45:41.998Z,25.87
2018-03-16T14:48:10.358Z,25.90
2018-03-16T14:50:37.895Z,29.87
2018-03-16T14:53:05.450Z,23.20
2018-03-16T14:55:33.004Z,22.57
2018-03-16T14:58:00.621Z,20.23
2018-03-16T15:00:28.264Z,19.50
2018-03-16T15:02:55.850Z,21.10
2018-03-16T15:05:23.437Z,21.67
2018-03-16T15:07:51.776Z,20.63
2018-03-16T15:10:19.296Z,19.50
2018-03-16T15:12:46.826Z,20.43
2018-03-16T15:15:14.464Z,19.77
2018-03-16T15:17:42.058Z,20.00
2018-03-16T15:20:09.587Z,19.87
2018-03-16T15:22:37.161Z,20.37
2018-03-16T15:25:04.730Z,18.37
2018-03-16T15:27:32.284Z,18.40
2018-03-16T15:29:59.805Z,18.07
2018-03-16T15:32:27.362Z,18.50
2018-03-16T15:34:55.777Z,19.03
2018-03-16T15:37:23.325Z,17.07
2018-03-16T15:39:50.878Z,23.17
2018-03-16T15:42:19.199Z,19.63
2018-03-16T15:44:46.766Z,18.27
2018-03-16T15:47:14.315Z,18.13
2018-03-16T15:49:41.901Z,17.00
2018-03-16T15:52:09.436Z,16.57
2018-03-16T15:54:36.985Z,16.70
2018-03-16T15:57:04.556Z,17.20
2018-03-16T15:59:32.124Z,15.43
2018-03-16T16:01:59.695Z,15.23
2018-03-16T16:04:27.248Z,16.50
2018-03-16T16:06:54.787Z,15.87
2018-03-16T16:09:23.110Z,16.73
2018-03-16T16:11:50.653Z,16.33
2018-03-16T16:14:18.239Z,19.33
2018-03-16T16:16:45.793Z,26.37
2018-03-16T16:19:13.372Z,20.60
2018-03-16T16:21:40.958Z,22.27
2018-03-16T16:24:08.752Z,18.33
2018-03-16T16:26:36.333Z,21.57
2018-03-16T16:29:04.711Z,19.87
2018-03-16T16:31:33.272Z,19.80
2018-03-16T16:34:00.854Z,20.57
2018-03-16T16:36:29.432Z,20.63
2018-03-16T16:38:57.234Z,23.50
2018-03-16T16:41:24.809Z,26.90
2018-03-16T16:43:52.357Z,24.10
2018-03-16T16:46:20.064Z,22.97
2018-03-16T16:48:47.618Z,25.83
2018-03-16T16:51:15.214Z,20.83
2018-03-16T16:53:42.929Z,20.57
2018-03-16T16:56:10.564Z,22.57
2018-03-16T16:58:39.132Z,21.50
2018-03-16T17:01:07.096Z,15.03
2018-03-16T17:03:34.655Z,18.73
2018-03-16T17:06:02.247Z,18.03
2018-03-16T17:08:30.658Z,17.67
2018-03-16T17:10:59.209Z,16.20
2018-03-16T17:13:26.905Z,18.30
2018-03-16T17:15:55.249Z,19.00
2018-03-16T17:18:22.804Z,20.97
2018-03-16T17:20:50.645Z,18.07
2018-03-16T17:23:18.215Z,17.70
2018-03-16T17:25:45.767Z,16.90
2018-03-16T17:28:14.297Z,16.67
2018-03-16T17:30:41.821Z,18.33
2018-03-16T17:33:09.359Z,18.63
2018-03-16T17:35:37.712Z,18.47
2018-03-16T17:38:05.286Z,18.30
2018-03-16T17:40:32.818Z,17.40
2018-03-16T17:43:00.410Z,17.90
2018-03-16T17:45:27.914Z,14.27
2018-03-16T17:47:55.443Z,16.90
2018-03-16T17:50:23.018Z,17.63
2018-03-16T17:52:51.302Z,17.97
2018-03-16T17:55:19.716Z,19.07
2018-03-16T17:57:47.211Z,17.43
2018-03-16T18:00:14.732Z,17.13
2018-03-16T18:02:42.331Z,16.43
2018-03-16T18:05:09.912Z,18.47
2018-03-16T18:07:37.440Z,15.53
2018-03-16T18:10:05.006Z,14.87
2018-03-16T18:12:32.529Z,15.10
2018-03-16T18:15:00.823Z,14.80
2018-03-16T18:17:28.399Z,15.37
2018-03-16T18:19:55.914Z,15.37
2018-03-16T18:22:23.568Z,15.90
2018-03-16T18:24:51.081Z,16.40
2018-03-16T18:27:19.379Z,19.23
2018-03-16T18:29:46.954Z,16.83
2018-03-16T18:32:14.536Z,17.23
2018-03-16T18:34:42.056Z,19.10
2018-03-16T18:37:09.706Z,19.17
2018-03-16T18:39:38.004Z,20.10
2018-03-16T18:42:05.513Z,21.80
2018-03-16T18:44:33.053Z,21.40
2018-03-16T18:47:00.637Z,19.33
2018-03-16T18:49:28.131Z,20.67
2018-03-16T18:51:55.676Z,21.77
2018-03-16T18:54:23.194Z,19.20
2018-03-16T18:56:50.795Z,19.67
2018-03-16T18:59:18.311Z,22.00
2018-03-16T19:01:45.826Z,20.53
2018-03-16T19:04:13.365Z,21.73
2018-03-16T19:06:40.870Z,22.67
2018-03-16T19:09:08.393Z,23.73
2018-03-16T19:11:35.934Z,20.67
2018-03-16T19:14:03.569Z,22.37
2018-03-16T19:16:31.889Z,21.13
2018-03-16T19:18:59.550Z,23.20
2018-03-16T19:21:27.069Z,20.07
2018-03-16T19:23:54.585Z,20.13
2018-03-16T19:26:22.124Z,20.97
2018-03-16T19:28:50.536Z,19.20
2018-03-16T19:31:18.090Z,19.83
2018-03-16T19:33:45.650Z,18.63
2018-03-16T19:36:13.181Z,18.33
2018-03-16T19:38:40.702Z,19.40
2018-03-16T19:41:08.255Z,18.93
2018-03-16T19:43:35.798Z,19.90
2018-03-16T19:46:03.373Z,20.13
2018-03-16T19:48:31.030Z,20.07
2018-03-16T19:50:58.566Z,20.07
2018-03-16T19:53:26.105Z,19.27
2018-03-16T19:55:53.692Z,19.13
2018-03-16T19:58:21.211Z,18.43
2018-03-16T20:00:48.811Z,20.57
2018-03-16T20:03:16.382Z,19.90
2018-03-16T20:05:43.912Z,21.43
2018-03-16T20:08:12.286Z,21.63
2018-03-16T20:10:39.836Z,19.77
2018-03-16T20:13:07.372Z,20.53
2018-03-16T20:15:35.662Z,19.70
2018-03-16T20:18:03.971Z,20.03
2018-03-16T20:20:31.502Z,20.80
2018-03-16T20:22:59.883Z,19.97
2018-03-16T20:25:28.210Z,18.73
2018-03-16T20:27:55.737Z,20.03
2018-03-16T20:30:23.369Z,19.07
2018-03-16T20:32:51.045Z,18.77
2018-03-16T20:35:19.370Z,20.10
2018-03-16T20:37:46.938Z,18.93
2018-03-16T20:40:14.659Z,20.07
2018-03-16T20:42:43.037Z,18.53
2018-03-16T20:45:11.515Z,18.30
2018-03-16T20:47:39.051Z,19.70
2018-03-16T20:50:06.663Z,19.03
2018-03-16T20:52:34.998Z,19.67
2018-03-16T20:55:02.577Z,19.77
2018-03-16T20:57:30.156Z,19.37
2018-03-16T20:59:57.792Z,20.03
2018-03-16T21:02:25.382Z,19.33
2018-03-16T21:04:53.068Z,20.03
2018-03-16T21:07:21.410Z,19.83
2018-03-16T21:09:48.961Z,19.70
2018-03-16T21:12:16.542Z,19.07
2018-03-16T21:14:44.114Z,22.37
2018-03-16T21:17:12.426Z,18.67
2018-03-16T21:19:40.962Z,20.67
2018-03-16T21:22:08.578Z,18.73
2018-03-16T21:24:36.896Z,19.10
2018-03-16T21:27:05.958Z,18.43
2018-03-16T21:29:34.372Z,19.07
2018-03-16T21:32:02.060Z,20.30
2018-03-16T21:34:29.705Z,16.90
2018-03-16T21:36:57.296Z,18.07
2018-03-16T21:39:24.942Z,19.93
2018-03-16T21:41:52.487Z,15.97
2018-03-16T21:44:20.056Z,14.97
2018-03-16T21:46:47.632Z,16.53
2018-03-16T21:49:15.233Z,19.17
2018-03-16T21:51:42.801Z,17.13
2018-03-16T21:54:10.663Z,16.80
2018-03-16T21:56:38.201Z,19.20
2018-03-16T21:59:05.989Z,21.47
2018-03-16T22:01:33.517Z,18.47
2018-03-16T22:04:01.087Z,15.70
2018-03-16T22:06:28.780Z,15.17
2018-03-16T22:08:56.339Z,13.03
2018-03-16T22:11:23.916Z,14.33
2018-03-16T22:13:51.904Z,13.63
2018-03-16T22:16:19.427Z,10.53
2018-03-16T22:18:46.968Z,11.20
2018-03-16T22:21:14.574Z,12.83
2018-03-16T22:23:42.196Z,15.00
2018-03-16T22:26:09.715Z,15.00
2018-03-16T22:28:37.270Z,13.43
2018-03-16T22:31:04.900Z,12.07
2018-03-16T22:33:32.772Z,11.80
2018-03-16T22:36:00.285Z,12.10
2018-03-16T22:38:27.812Z,13.57
2018-03-16T22:40:55.428Z,12.40
2018-03-16T22:43:22.960Z,12.43
2018-03-16T22:45:52.209Z,12.70
2018-03-16T22:48:20.509Z,12.10
2018-03-16T22:50:48.031Z,12.70
2018-03-16T22:53:15.702Z,11.90
2018-03-16T22:55:44.025Z,11.57
2018-03-16T22:58:11.548Z,12.63
2018-03-16T23:00:39.867Z,12.03
2018-03-16T23:03:07.389Z,11.43
2018-03-16T23:05:34.891Z,10.50
2018-03-16T23:08:02.433Z,10.80
2018-03-16T23:10:30.725Z,10.37
2018-03-16T23:12:58.230Z,8.90
2018-03-16T23:15:25.749Z,8.87
2018-03-16T23:17:53.275Z,8.73
2018-03-16T23:20:20.836Z,8.67
2018-03-16T23:22:48.387Z,8.37
2018-03-16T23:25:16.672Z,8.30
2018-03-16T23:27:44.230Z,8.60
2018-03-16T23:30:11.755Z,9.13
2018-03-16T23:32:39.272Z,8.30
2018-03-16T23:35:06.812Z,9.30
2018-03-16T23:37:34.330Z,11.43
2018-03-16T23:40:02.644Z,10.43
2018-03-16T23:42:30.201Z,9.87
2018-03-16T23:44:57.718Z,11.50
2018-03-16T23:47:25.241Z,11.97
2018-03-16T23:49:52.771Z,11.13
2018-03-16T23:52:20.286Z,11.73
2018-03-16T23:54:47.798Z,10.50
2018-03-16T23:57:15.305Z,10.90
2018-03-16T23:59:42.837Z,12.50
